sensor_id;sensor_type;location;lat;lon;timestamp;temperature;humidity
13496;DHT22;6820;49.374;8.452;2022-11-20T00:00:02;4.94;99.99
13496;DHT22;6820;49.374;8.452;2022-11-20T00:04:07;4.96;99.99
13496;DHT22;6820;49.374;8.452;2022-11-20T00:08:11;4.91;99.99
13496;DHT22;6820;49.374;8.452;2022-11-20T00:12:13;4.90;99.99
13496;DHT22;6820;49.374;8.452;2022-11-20T00:16:16;4.84;99.99
13496;DHT22;6820;49.374;8.452;2022-11-20T00:20:19;4.88;99.99
13496;DHT22;6820;49.374;8.452;2022-11-20T00:24:21;4.96;99.99
13496;DHT22;6820;49.374;8.452;2022-11-20T00:28:22;4.97;99.99
13496;DHT22;6820;49.374;8.452;2022-11-20T00:32:24;4.99;99.99
13496;DHT22;6820;49.374;8.452;2022-11-20T00:36:26;5.05;99.99
13496;DHT22;6820;49.374;8.452;2022-11-20T00:40:29;5.04;99.99
13496;DHT22;6820;49.374;8.452;2022-11-20T00:44:30;4.99;99.99
13496;DHT22;6820;49.374;8.452;2022-11-20T00:48:32;4.99;99.99
13496;DHT22;6820;49.374;8.452;2022-11-20T00:52:34;4.96;99.99
13496;DHT22;6820;49.374;8.452;2022-11-20T00:56:35;4.96;99.99
13496;DHT22;6820;49.374;8.452;2022-11-20T01:00:37;4.97;99.99
13496;DHT22;6820;49.374;8.452;2022-11-20T01:04:38;4.97;99.99
13496;DHT22;6820;49.374;8.452;2022-11-20T01:08:40;4.96;99.99
13496;DHT22;6820;49.374;8.452;2022-11-20T01:12:42;4.99;99.99
13496;DHT22;6820;49.374;8.452;2022-11-20T01:16:44;4.99;99.99
13496;DHT22;6820;49.374;8.452;2022-11-20T01:20:49;4.99;99.99
13496;DHT22;6820;49.374;8.452;2022-11-20T01:24:50;5.01;99.99
13496;DHT22;6820;49.374;8.452;2022-11-20T01:28:52;5.06;99.99
13496;DHT22;6820;49.374;8.452;2022-11-20T01:32:55;5.04;99.99
13496;DHT22;6820;49.374;8.452;2022-11-20T01:36:57;5.05;99.99
13496;DHT22;6820;49.374;8.452;2022-11-20T01:40:58;5.04;99.99
13496;DHT22;6820;49.374;8.452;2022-11-20T01:45:00;5.02;99.99
13496;DHT22;6820;49.374;8.452;2022-11-20T01:53:19;4.96;99.99
13496;DHT22;6820;49.374;8.452;2022-11-20T01:57:24;5.01;99.99
13496;DHT22;6820;49.374;8.452;2022-11-20T02:01:28;5.05;99.99
13496;DHT22;6820;49.374;8.452;2022-11-20T02:09:37;5.05;99.99
13496;DHT22;6820;49.374;8.452;2022-11-20T02:13:38;5.09;99.99
13496;DHT22;6820;49.374;8.452;2022-11-20T02:17:45;5.12;99.99
13496;DHT22;6820;49.374;8.452;2022-11-20T02:22:09;5.19;99.99
13496;DHT22;6820;49.374;8.452;2022-11-20T02:26:15;5.22;99.99
13496;DHT22;6820;49.374;8.452;2022-11-20T02:30:17;5.20;99.99
13496;DHT22;6820;49.374;8.452;2022-11-20T02:34:19;5.12;99.99
13496;DHT22;6820;49.374;8.452;2022-11-20T02:38:21;5.17;99.99
13496;DHT22;6820;49.374;8.452;2022-11-20T02:42:22;5.20;99.99
13496;DHT22;6820;49.374;8.452;2022-11-20T02:46:24;5.22;99.99
13496;DHT22;6820;49.374;8.452;2022-11-20T02:50:25;5.22;99.99
13496;DHT22;6820;49.374;8.452;2022-11-20T02:54:27;5.26;99.99
13496;DHT22;6820;49.374;8.452;2022-11-20T02:58:29;5.29;99.99
13496;DHT22;6820;49.374;8.452;2022-11-20T03:02:30;5.29;99.99
13496;DHT22;6820;49.374;8.452;2022-11-20T03:06:33;5.20;99.99
13496;DHT22;6820;49.374;8.452;2022-11-20T03:10:34;5.20;99.99
13496;DHT22;6820;49.374;8.452;2022-11-20T03:14:36;5.15;99.99
13496;DHT22;6820;49.374;8.452;2022-11-20T03:18:38;5.08;99.99
13496;DHT22;6820;49.374;8.452;2022-11-20T03:22:40;5.02;99.99
13496;DHT22;6820;49.374;8.452;2022-11-20T03:26:41;5.05;99.99
13496;DHT22;6820;49.374;8.452;2022-11-20T03:30:43;4.97;99.99
13496;DHT22;6820;49.374;8.452;2022-11-20T03:34:45;5.02;99.99
13496;DHT22;6820;49.374;8.452;2022-11-20T03:38:46;5.05;99.99
13496;DHT22;6820;49.374;8.452;2022-11-20T03:42:49;5.08;99.99
13496;DHT22;6820;49.374;8.452;2022-11-20T03:46:50;5.15;99.99
13496;DHT22;6820;49.374;8.452;2022-11-20T03:50:52;5.15;99.99
13496;DHT22;6820;49.374;8.452;2022-11-20T03:54:55;5.14;99.99
13496;DHT22;6820;49.374;8.452;2022-11-20T03:58:56;5.17;99.99
13496;DHT22;6820;49.374;8.452;2022-11-20T04:02:58;5.19;99.99
13496;DHT22;6820;49.374;8.452;2022-11-20T04:07:00;5.23;99.99
13496;DHT22;6820;49.374;8.452;2022-11-20T04:11:12;5.27;99.99
13496;DHT22;6820;49.374;8.452;2022-11-20T04:15:15;5.30;99.99
13496;DHT22;6820;49.374;8.452;2022-11-20T04:19:17;5.30;99.99
13496;DHT22;6820;49.374;8.452;2022-11-20T04:23:18;5.33;99.99
13496;DHT22;6820;49.374;8.452;2022-11-20T04:27:27;5.33;99.99
13496;DHT22;6820;49.374;8.452;2022-11-20T04:31:30;5.40;99.99
13496;DHT22;6820;49.374;8.452;2022-11-20T04:35:36;5.44;99.99
13496;DHT22;6820;49.374;8.452;2022-11-20T04:39:38;5.42;99.99
13496;DHT22;6820;49.374;8.452;2022-11-20T04:43:39;5.45;99.99
13496;DHT22;6820;49.374;8.452;2022-11-20T04:47:41;5.47;99.99
13496;DHT22;6820;49.374;8.452;2022-11-20T04:51:42;5.47;99.99
13496;DHT22;6820;49.374;8.452;2022-11-20T04:55:44;5.49;99.99
13496;DHT22;6820;49.374;8.452;2022-11-20T04:59:45;5.55;99.99
13496;DHT22;6820;49.374;8.452;2022-11-20T05:03:47;5.52;99.99
13496;DHT22;6820;49.374;8.452;2022-11-20T05:07:49;5.49;99.99
13496;DHT22;6820;49.374;8.452;2022-11-20T05:11:50;5.47;99.99
13496;DHT22;6820;49.374;8.452;2022-11-20T05:15:52;5.51;99.99
13496;DHT22;6820;49.374;8.452;2022-11-20T05:19:54;5.55;99.99
13496;DHT22;6820;49.374;8.452;2022-11-20T05:23:55;5.59;99.99
13496;DHT22;6820;49.374;8.452;2022-11-20T05:27:57;5.63;99.99
13496;DHT22;6820;49.374;8.452;2022-11-20T05:31:58;5.60;99.99
13496;DHT22;6820;49.374;8.452;2022-11-20T05:36:00;5.63;99.99
13496;DHT22;6820;49.374;8.452;2022-11-20T05:40:02;5.65;99.99
13496;DHT22;6820;49.374;8.452;2022-11-20T05:44:04;5.63;99.99
13496;DHT22;6820;49.374;8.452;2022-11-20T05:48:06;5.63;99.99
13496;DHT22;6820;49.374;8.452;2022-11-20T05:52:07;5.58;99.99
13496;DHT22;6820;49.374;8.452;2022-11-20T05:56:10;5.55;99.99
13496;DHT22;6820;49.374;8.452;2022-11-20T06:00:13;5.56;99.99
13496;DHT22;6820;49.374;8.452;2022-11-20T06:04:15;5.59;99.99
13496;DHT22;6820;49.374;8.452;2022-11-20T06:08:17;5.63;99.99
13496;DHT22;6820;49.374;8.452;2022-11-20T06:12:18;5.60;99.99
13496;DHT22;6820;49.374;8.452;2022-11-20T06:16:20;5.60;99.99
13496;DHT22;6820;49.374;8.452;2022-11-20T06:20:23;5.63;99.99
13496;DHT22;6820;49.374;8.452;2022-11-20T06:24:24;5.66;99.99
13496;DHT22;6820;49.374;8.452;2022-11-20T06:28:26;5.73;99.99
13496;DHT22;6820;49.374;8.452;2022-11-20T06:32:28;5.74;99.99
13496;DHT22;6820;49.374;8.452;2022-11-20T06:36:29;5.77;99.99
13496;DHT22;6820;49.374;8.452;2022-11-20T06:40:31;5.81;99.99
13496;DHT22;6820;49.374;8.452;2022-11-20T06:44:32;5.88;99.99
13496;DHT22;6820;49.374;8.452;2022-11-20T06:48:34;5.95;99.99
13496;DHT22;6820;49.374;8.452;2022-11-20T06:52:35;6.01;99.99
13496;DHT22;6820;49.374;8.452;2022-11-20T06:56:46;6.03;99.99
13496;DHT22;6820;49.374;8.452;2022-11-20T07:00:49;6.05;99.99
13496;DHT22;6820;49.374;8.452;2022-11-20T07:04:50;6.08;99.99
13496;DHT22;6820;49.374;8.452;2022-11-20T07:08:52;6.08;99.99
13496;DHT22;6820;49.374;8.452;2022-11-20T07:12:54;6.08;99.99
13496;DHT22;6820;49.374;8.452;2022-11-20T07:16:55;6.10;99.99
13496;DHT22;6820;49.374;8.452;2022-11-20T07:21:01;6.11;99.99
13496;DHT22;6820;49.374;8.452;2022-11-20T07:25:06;6.11;99.99
13496;DHT22;6820;49.374;8.452;2022-11-20T07:29:08;6.10;99.99
13496;DHT22;6820;49.374;8.452;2022-11-20T07:33:10;6.05;99.99
13496;DHT22;6820;49.374;8.452;2022-11-20T07:37:12;6.03;99.99
13496;DHT22;6820;49.374;8.452;2022-11-20T07:41:14;6.03;99.99
13496;DHT22;6820;49.374;8.452;2022-11-20T07:45:16;6.10;99.99
13496;DHT22;6820;49.374;8.452;2022-11-20T07:49:19;6.20;99.99
13496;DHT22;6820;49.374;8.452;2022-11-20T07:53:21;6.24;99.99
13496;DHT22;6820;49.374;8.452;2022-11-20T07:57:23;6.27;99.99
13496;DHT22;6820;49.374;8.452;2022-11-20T08:01:28;6.32;99.99
13496;DHT22;6820;49.374;8.452;2022-11-20T08:05:30;6.38;99.99
13496;DHT22;6820;49.374;8.452;2022-11-20T08:09:32;6.35;99.99
13496;DHT22;6820;49.374;8.452;2022-11-20T08:13:33;6.42;99.99
13496;DHT22;6820;49.374;8.452;2022-11-20T08:17:59;6.53;99.99
13496;DHT22;6820;49.374;8.452;2022-11-20T08:22:25;6.60;99.99
13496;DHT22;6820;49.374;8.452;2022-11-20T08:26:26;6.71;99.99
13496;DHT22;6820;49.374;8.452;2022-11-20T08:30:28;6.82;99.99
13496;DHT22;6820;49.374;8.452;2022-11-20T08:34:31;6.90;99.99
13496;DHT22;6820;49.374;8.452;2022-11-20T08:38:32;7.04;99.99
13496;DHT22;6820;49.374;8.452;2022-11-20T08:42:34;7.15;99.99
13496;DHT22;6820;49.374;8.452;2022-11-20T08:46:39;7.21;99.99
13496;DHT22;6820;49.374;8.452;2022-11-20T08:50:42;7.30;99.99
13496;DHT22;6820;49.374;8.452;2022-11-20T08:54:43;7.34;99.99
13496;DHT22;6820;49.374;8.452;2022-11-20T08:58:45;7.42;99.99
13496;DHT22;6820;49.374;8.452;2022-11-20T09:03:06;7.45;99.99
13496;DHT22;6820;49.374;8.452;2022-11-20T09:07:08;7.47;99.99
13496;DHT22;6820;49.374;8.452;2022-11-20T09:11:10;7.52;99.99
13496;DHT22;6820;49.374;8.452;2022-11-20T09:15:11;7.60;99.99
13496;DHT22;6820;49.374;8.452;2022-11-20T09:19:13;7.71;99.99
13496;DHT22;6820;49.374;8.452;2022-11-20T09:23:35;7.74;99.99
13496;DHT22;6820;49.374;8.452;2022-11-20T09:27:38;7.77;99.99
13496;DHT22;6820;49.374;8.452;2022-11-20T09:31:40;7.70;99.99
13496;DHT22;6820;49.374;8.452;2022-11-20T09:35:42;7.63;99.99
13496;DHT22;6820;49.374;8.452;2022-11-20T09:39:44;7.67;99.99
13496;DHT22;6820;49.374;8.452;2022-11-20T09:44:02;7.66;99.99
13496;DHT22;6820;49.374;8.452;2022-11-20T09:48:22;7.54;99.99
13496;DHT22;6820;49.374;8.452;2022-11-20T09:52:38;7.44;99.99
13496;DHT22;6820;49.374;8.452;2022-11-20T09:56:47;7.39;99.99
13496;DHT22;6820;49.374;8.452;2022-11-20T10:00:52;7.36;99.99
13496;DHT22;6820;49.374;8.452;2022-11-20T10:05:12;7.33;99.99
13496;DHT22;6820;49.374;8.452;2022-11-20T10:09:38;7.32;99.99
13496;DHT22;6820;49.374;8.452;2022-11-20T10:13:52;7.34;99.99
13496;DHT22;6820;49.374;8.452;2022-11-20T10:18:02;7.37;99.99
13496;DHT22;6820;49.374;8.452;2022-11-20T10:22:13;7.42;99.99
13496;DHT22;6820;49.374;8.452;2022-11-20T10:26:35;7.37;99.99
13496;DHT22;6820;49.374;8.452;2022-11-20T10:31:04;7.42;99.99
13496;DHT22;6820;49.374;8.452;2022-11-20T10:43:48;7.47;99.99
13496;DHT22;6820;49.374;8.452;2022-11-20T10:56:48;7.48;99.99
13496;DHT22;6820;49.374;8.452;2022-11-20T11:00:51;7.70;99.99
13496;DHT22;6820;49.374;8.452;2022-11-20T11:04:53;7.86;99.99
13496;DHT22;6820;49.374;8.452;2022-11-20T11:08:56;7.95;99.99
13496;DHT22;6820;49.374;8.452;2022-11-20T11:13:01;7.95;99.99
13496;DHT22;6820;49.374;8.452;2022-11-20T11:17:03;7.95;99.99
13496;DHT22;6820;49.374;8.452;2022-11-20T11:21:05;7.94;99.99
13496;DHT22;6820;49.374;8.452;2022-11-20T11:25:07;8.00;99.99
13496;DHT22;6820;49.374;8.452;2022-11-20T11:29:20;8.09;99.99
13496;DHT22;6820;49.374;8.452;2022-11-20T11:33:27;8.10;99.99
13496;DHT22;6820;49.374;8.452;2022-11-20T11:37:37;8.09;99.99
13496;DHT22;6820;49.374;8.452;2022-11-20T11:41:39;8.09;99.99
13496;DHT22;6820;49.374;8.452;2022-11-20T11:45:50;8.18;99.99
13496;DHT22;6820;49.374;8.452;2022-11-20T11:54:19;8.37;99.99
13496;DHT22;6820;49.374;8.452;2022-11-20T12:07:00;8.76;99.99
13496;DHT22;6820;49.374;8.452;2022-11-20T12:11:33;8.89;99.99
13496;DHT22;6820;49.374;8.452;2022-11-20T12:15:38;9.10;99.99
13496;DHT22;6820;49.374;8.452;2022-11-20T12:19:45;9.26;99.99
13496;DHT22;6820;49.374;8.452;2022-11-20T12:23:58;9.41;99.99
13496;DHT22;6820;49.374;8.452;2022-11-20T12:33:02;9.74;99.99
13496;DHT22;6820;49.374;8.452;2022-11-20T12:59:01;10.16;99.99
13496;DHT22;6820;49.374;8.452;2022-11-20T13:07:33;10.04;99.99
13496;DHT22;6820;49.374;8.452;2022-11-20T13:16:01;10.06;99.99
13496;DHT22;6820;49.374;8.452;2022-11-20T13:20:13;10.06;99.99
13496;DHT22;6820;49.374;8.452;2022-11-20T13:28:28;10.06;99.99
13496;DHT22;6820;49.374;8.452;2022-11-20T13:32:31;10.06;99.99
13496;DHT22;6820;49.374;8.452;2022-11-20T13:36:33;10.01;99.99
13496;DHT22;6820;49.374;8.452;2022-11-20T13:40:59;9.96;99.99
13496;DHT22;6820;49.374;8.452;2022-11-20T13:45:29;9.91;99.99
13496;DHT22;6820;49.374;8.452;2022-11-20T14:03:37;9.85;99.99
13496;DHT22;6820;49.374;8.452;2022-11-20T14:07:41;9.78;99.99
13496;DHT22;6820;49.374;8.452;2022-11-20T14:11:47;9.70;99.99
13496;DHT22;6820;49.374;8.452;2022-11-20T14:15:49;9.65;99.99
13496;DHT22;6820;49.374;8.452;2022-11-20T14:19:59;9.58;99.99
13496;DHT22;6820;49.374;8.452;2022-11-20T14:24:09;9.48;99.99
13496;DHT22;6820;49.374;8.452;2022-11-20T14:28:18;9.41;99.99
13496;DHT22;6820;49.374;8.452;2022-11-20T14:32:28;9.31;99.99
13496;DHT22;6820;49.374;8.452;2022-11-20T14:36:31;9.24;99.99
13496;DHT22;6820;49.374;8.452;2022-11-20T14:40:34;9.17;99.99
13496;DHT22;6820;49.374;8.452;2022-11-20T14:44:39;9.12;99.99
13496;DHT22;6820;49.374;8.452;2022-11-20T14:48:49;9.08;99.99
13496;DHT22;6820;49.374;8.452;2022-11-20T14:52:56;9.04;99.99
13496;DHT22;6820;49.374;8.452;2022-11-20T14:57:00;9.01;99.99
13496;DHT22;6820;49.374;8.452;2022-11-20T15:01:05;8.97;99.99
13496;DHT22;6820;49.374;8.452;2022-11-20T15:05:08;8.94;99.99
13496;DHT22;6820;49.374;8.452;2022-11-20T15:09:14;8.86;99.99
13496;DHT22;6820;49.374;8.452;2022-11-20T15:13:17;8.82;99.99
13496;DHT22;6820;49.374;8.452;2022-11-20T15:17:25;8.78;99.99
13496;DHT22;6820;49.374;8.452;2022-11-20T15:21:27;8.76;99.99
13496;DHT22;6820;49.374;8.452;2022-11-20T15:25:29;8.71;99.99
13496;DHT22;6820;49.374;8.452;2022-11-20T15:29:31;8.71;99.99
13496;DHT22;6820;49.374;8.452;2022-11-20T15:33:33;8.71;99.99
13496;DHT22;6820;49.374;8.452;2022-11-20T15:37:35;8.80;99.99
13496;DHT22;6820;49.374;8.452;2022-11-20T15:41:37;8.83;99.99
13496;DHT22;6820;49.374;8.452;2022-11-20T15:45:41;8.85;99.99
13496;DHT22;6820;49.374;8.452;2022-11-20T15:49:46;8.91;99.99
13496;DHT22;6820;49.374;8.452;2022-11-20T15:53:47;9.03;99.99
13496;DHT22;6820;49.374;8.452;2022-11-20T15:57:49;9.10;99.99
13496;DHT22;6820;49.374;8.452;2022-11-20T16:01:50;9.13;99.99
13496;DHT22;6820;49.374;8.452;2022-11-20T16:05:52;9.16;99.99
13496;DHT22;6820;49.374;8.452;2022-11-20T16:09:54;9.16;99.99
13496;DHT22;6820;49.374;8.452;2022-11-20T16:13:57;8.98;99.99
13496;DHT22;6820;49.374;8.452;2022-11-20T16:18:19;8.88;99.99
13496;DHT22;6820;49.374;8.452;2022-11-20T16:22:21;8.91;99.99
13496;DHT22;6820;49.374;8.452;2022-11-20T16:26:23;8.83;99.99
13496;DHT22;6820;49.374;8.452;2022-11-20T16:30:24;8.78;99.99
13496;DHT22;6820;49.374;8.452;2022-11-20T16:34:26;8.73;99.99
13496;DHT22;6820;49.374;8.452;2022-11-20T16:38:28;8.71;99.99
13496;DHT22;6820;49.374;8.452;2022-11-20T16:42:34;8.67;99.99
13496;DHT22;6820;49.374;8.452;2022-11-20T16:46:37;8.70;99.99
13496;DHT22;6820;49.374;8.452;2022-11-20T16:50:50;8.67;99.99
13496;DHT22;6820;49.374;8.452;2022-11-20T16:54:53;8.70;99.99
13496;DHT22;6820;49.374;8.452;2022-11-20T16:58:56;8.68;99.99
13496;DHT22;6820;49.374;8.452;2022-11-20T17:02:59;8.70;99.99
13496;DHT22;6820;49.374;8.452;2022-11-20T17:07:00;8.68;99.99
13496;DHT22;6820;49.374;8.452;2022-11-20T17:11:09;8.68;99.99
13496;DHT22;6820;49.374;8.452;2022-11-20T17:15:12;8.68;99.99
13496;DHT22;6820;49.374;8.452;2022-11-20T17:19:14;8.65;99.99
13496;DHT22;6820;49.374;8.452;2022-11-20T17:23:15;8.65;99.99
13496;DHT22;6820;49.374;8.452;2022-11-20T17:27:17;8.65;99.99
13496;DHT22;6820;49.374;8.452;2022-11-20T17:31:19;8.63;99.99
13496;DHT22;6820;49.374;8.452;2022-11-20T17:35:20;8.61;99.99
13496;DHT22;6820;49.374;8.452;2022-11-20T17:39:22;8.60;99.99
13496;DHT22;6820;49.374;8.452;2022-11-20T17:43:23;8.58;99.99
13496;DHT22;6820;49.374;8.452;2022-11-20T17:47:25;8.57;99.99
13496;DHT22;6820;49.374;8.452;2022-11-20T17:51:28;8.55;99.99
13496;DHT22;6820;49.374;8.452;2022-11-20T17:55:31;8.54;99.99
13496;DHT22;6820;49.374;8.452;2022-11-20T17:59:56;8.54;99.99
13496;DHT22;6820;49.374;8.452;2022-11-20T18:03:57;8.52;99.99
13496;DHT22;6820;49.374;8.452;2022-11-20T18:07:59;8.52;99.99
13496;DHT22;6820;49.374;8.452;2022-11-20T18:12:01;8.49;99.99
13496;DHT22;6820;49.374;8.452;2022-11-20T18:16:06;8.50;99.99
13496;DHT22;6820;49.374;8.452;2022-11-20T18:20:07;8.49;99.99
13496;DHT22;6820;49.374;8.452;2022-11-20T18:24:30;8.47;99.99
13496;DHT22;6820;49.374;8.452;2022-11-20T18:28:35;8.40;99.99
13496;DHT22;6820;49.374;8.452;2022-11-20T18:32:38;8.39;99.99
13496;DHT22;6820;49.374;8.452;2022-11-20T18:36:40;8.34;99.99
13496;DHT22;6820;49.374;8.452;2022-11-20T18:40:42;8.29;99.99
13496;DHT22;6820;49.374;8.452;2022-11-20T18:44:44;8.20;99.99
13496;DHT22;6820;49.374;8.452;2022-11-20T18:48:51;8.14;99.99
13496;DHT22;6820;49.374;8.452;2022-11-20T18:52:53;8.13;99.99
13496;DHT22;6820;49.374;8.452;2022-11-20T18:56:55;8.09;99.99
13496;DHT22;6820;49.374;8.452;2022-11-20T19:01:03;8.10;99.99
13496;DHT22;6820;49.374;8.452;2022-11-20T19:05:08;8.00;99.99
13496;DHT22;6820;49.374;8.452;2022-11-20T19:09:11;7.95;99.99
13496;DHT22;6820;49.374;8.452;2022-11-20T19:13:14;7.99;99.99
13496;DHT22;6820;49.374;8.452;2022-11-20T19:17:15;7.89;99.99
13496;DHT22;6820;49.374;8.452;2022-11-20T19:21:18;7.86;99.99
13496;DHT22;6820;49.374;8.452;2022-11-20T19:25:22;7.84;99.99
13496;DHT22;6820;49.374;8.452;2022-11-20T19:29:23;7.79;99.99
13496;DHT22;6820;49.374;8.452;2022-11-20T19:33:27;7.76;99.99
13496;DHT22;6820;49.374;8.452;2022-11-20T19:37:31;7.73;99.99
13496;DHT22;6820;49.374;8.452;2022-11-20T19:41:34;7.76;99.99
13496;DHT22;6820;49.374;8.452;2022-11-20T19:45:37;7.71;99.99
13496;DHT22;6820;49.374;8.452;2022-11-20T19:49:39;7.70;99.99
13496;DHT22;6820;49.374;8.452;2022-11-20T19:53:41;7.69;99.99
13496;DHT22;6820;49.374;8.452;2022-11-20T19:57:43;7.66;99.99
13496;DHT22;6820;49.374;8.452;2022-11-20T20:01:45;7.67;99.99
13496;DHT22;6820;49.374;8.452;2022-11-20T20:05:46;7.67;99.99
13496;DHT22;6820;49.374;8.452;2022-11-20T20:09:48;7.62;99.99
13496;DHT22;6820;49.374;8.452;2022-11-20T20:13:49;7.60;99.99
13496;DHT22;6820;49.374;8.452;2022-11-20T20:17:51;7.55;99.99
13496;DHT22;6820;49.374;8.452;2022-11-20T20:21:53;7.50;99.99
13496;DHT22;6820;49.374;8.452;2022-11-20T20:25:54;7.44;99.99
13496;DHT22;6820;49.374;8.452;2022-11-20T20:29:56;7.45;99.99
13496;DHT22;6820;49.374;8.452;2022-11-20T20:33:58;7.50;99.99
13496;DHT22;6820;49.374;8.452;2022-11-20T20:38:00;7.51;99.99
13496;DHT22;6820;49.374;8.452;2022-11-20T20:42:02;7.51;99.99
13496;DHT22;6820;49.374;8.452;2022-11-20T20:46:03;7.50;99.99
13496;DHT22;6820;49.374;8.452;2022-11-20T20:50:08;7.45;99.99
13496;DHT22;6820;49.374;8.452;2022-11-20T20:54:12;7.37;99.99
13496;DHT22;6820;49.374;8.452;2022-11-20T20:58:14;7.30;99.99
13496;DHT22;6820;49.374;8.452;2022-11-20T21:02:15;7.26;99.99
13496;DHT22;6820;49.374;8.452;2022-11-20T21:06:17;7.16;99.99
13496;DHT22;6820;49.374;8.452;2022-11-20T21:10:18;7.14;99.99
13496;DHT22;6820;49.374;8.452;2022-11-20T21:14:24;7.11;99.99
13496;DHT22;6820;49.374;8.452;2022-11-20T21:18:26;7.11;99.99
13496;DHT22;6820;49.374;8.452;2022-11-20T21:22:28;7.09;99.99
13496;DHT22;6820;49.374;8.452;2022-11-20T21:26:36;7.14;99.99
13496;DHT22;6820;49.374;8.452;2022-11-20T21:30:38;7.14;99.99
13496;DHT22;6820;49.374;8.452;2022-11-20T21:34:39;7.11;99.99
13496;DHT22;6820;49.374;8.452;2022-11-20T21:38:41;7.11;99.99
13496;DHT22;6820;49.374;8.452;2022-11-20T21:42:43;7.11;99.99
13496;DHT22;6820;49.374;8.452;2022-11-20T21:46:45;7.11;99.99
13496;DHT22;6820;49.374;8.452;2022-11-20T21:50:46;7.08;99.99
13496;DHT22;6820;49.374;8.452;2022-11-20T21:54:48;7.05;99.99
13496;DHT22;6820;49.374;8.452;2022-11-20T21:58:50;7.05;99.99
13496;DHT22;6820;49.374;8.452;2022-11-20T22:02:53;7.04;99.99
13496;DHT22;6820;49.374;8.452;2022-11-20T22:06:55;7.05;99.99
13496;DHT22;6820;49.374;8.452;2022-11-20T22:10:57;7.07;99.99
13496;DHT22;6820;49.374;8.452;2022-11-20T22:15:03;7.08;99.99
13496;DHT22;6820;49.374;8.452;2022-11-20T22:19:05;7.08;99.99
13496;DHT22;6820;49.374;8.452;2022-11-20T22:23:07;7.12;99.99
13496;DHT22;6820;49.374;8.452;2022-11-20T22:27:09;7.15;99.99
13496;DHT22;6820;49.374;8.452;2022-11-20T22:31:10;7.18;99.99
13496;DHT22;6820;49.374;8.452;2022-11-20T22:35:12;7.23;99.99
13496;DHT22;6820;49.374;8.452;2022-11-20T22:39:13;7.26;99.99
13496;DHT22;6820;49.374;8.452;2022-11-20T22:43:15;7.30;99.99
13496;DHT22;6820;49.374;8.452;2022-11-20T22:47:17;7.33;99.99
13496;DHT22;6820;49.374;8.452;2022-11-20T22:51:19;7.37;99.99
13496;DHT22;6820;49.374;8.452;2022-11-20T22:55:22;7.42;99.99
13496;DHT22;6820;49.374;8.452;2022-11-20T22:59:24;7.45;99.99
13496;DHT22;6820;49.374;8.452;2022-11-20T23:03:26;7.47;99.99
13496;DHT22;6820;49.374;8.452;2022-11-20T23:07:27;7.47;99.99
13496;DHT22;6820;49.374;8.452;2022-11-20T23:11:29;7.50;99.99
13496;DHT22;6820;49.374;8.452;2022-11-20T23:15:32;7.54;99.99
13496;DHT22;6820;49.374;8.452;2022-11-20T23:19:34;7.58;99.99
13496;DHT22;6820;49.374;8.452;2022-11-20T23:23:36;7.62;99.99
13496;DHT22;6820;49.374;8.452;2022-11-20T23:27:38;7.63;99.99
13496;DHT22;6820;49.374;8.452;2022-11-20T23:31:39;7.67;99.99
13496;DHT22;6820;49.374;8.452;2022-11-20T23:35:41;7.67;99.99
13496;DHT22;6820;49.374;8.452;2022-11-20T23:39:46;7.63;99.99
13496;DHT22;6820;49.374;8.452;2022-11-20T23:43:48;7.63;99.99
13496;DHT22;6820;49.374;8.452;2022-11-20T23:47:49;7.62;99.99
13496;DHT22;6820;49.374;8.452;2022-11-20T23:51:51;7.57;99.99
13496;DHT22;6820;49.374;8.452;2022-11-20T23:55:53;7.57;99.99
13496;DHT22;6820;49.374;8.452;2022-11-20T23:59:56;7.54;99.99
